sensor_id;sensor_type;location;lat;lon;timestamp;pressure;altitude;pressure_sealevel;temperature;humidity
21730;BME280;11027;51.030;13.812;2023-05-17T00:01:46;100566.28;;;9.59;61.40
21730;BME280;11027;51.030;13.812;2023-05-17T00:04:11;100565.28;;;9.60;62.02
21730;BME280;11027;51.030;13.812;2023-05-17T00:06:37;100564.25;;;9.61;62.22
21730;BME280;11027;51.030;13.812;2023-05-17T00:09:02;100564.25;;;9.61;62.24
21730;BME280;11027;51.030;13.812;2023-05-17T00:11:27;100564.25;;;9.61;62.51
21730;BME280;11027;51.030;13.812;2023-05-17T00:13:53;100562.41;;;9.61;62.72
21730;BME280;11027;51.030;13.812;2023-05-17T00:16:18;100564.25;;;9.61;63.31
21730;BME280;11027;51.030;13.812;2023-05-17T00:18:43;100566.28;;;9.59;63.71
21730;BME280;11027;51.030;13.812;2023-05-17T00:21:08;100563.06;;;9.55;64.32
21730;BME280;11027;51.030;13.812;2023-05-17T00:23:34;100560.13;;;9.49;64.84
21730;BME280;11027;51.030;13.812;2023-05-17T00:25:59;100551.94;;;9.40;65.48
21730;BME280;11027;51.030;13.812;2023-05-17T00:28:24;100567.72;;;9.37;65.86
21730;BME280;11027;51.030;13.812;2023-05-17T00:30:49;100571.97;;;9.31;66.44
21730;BME280;11027;51.030;13.812;2023-05-17T00:33:15;100570.91;;;9.24;66.55
21730;BME280;11027;51.030;13.812;2023-05-17T00:35:40;100568.84;;;9.18;66.96
21730;BME280;11027;51.030;13.812;2023-05-17T00:38:05;100571.84;;;9.15;67.10
21730;BME280;11027;51.030;13.812;2023-05-17T00:40:31;100575.44;;;9.15;66.86
21730;BME280;11027;51.030;13.812;2023-05-17T00:42:56;100561.69;;;9.17;66.91
21730;BME280;11027;51.030;13.812;2023-05-17T00:45:22;100559.97;;;9.16;66.90
21730;BME280;11027;51.030;13.812;2023-05-17T00:47:47;100567.09;;;9.17;66.75
21730;BME280;11027;51.030;13.812;2023-05-17T00:50:12;100574.28;;;9.18;66.60
21730;BME280;11027;51.030;13.812;2023-05-17T00:52:38;100579.00;;;9.16;66.63
21730;BME280;11027;51.030;13.812;2023-05-17T00:55:03;100572.03;;;9.13;66.60
21730;BME280;11027;51.030;13.812;2023-05-17T00:57:28;100576.94;;;9.10;66.91
21730;BME280;11027;51.030;13.812;2023-05-17T00:59:56;100586.09;;;9.09;66.73
21730;BME280;11027;51.030;13.812;2023-05-17T01:02:22;100582.69;;;9.07;66.87
21730;BME280;11027;51.030;13.812;2023-05-17T01:04:48;100570.44;;;9.02;67.07
21730;BME280;11027;51.030;13.812;2023-05-17T01:07:14;100579.22;;;8.96;66.92
21730;BME280;11027;51.030;13.812;2023-05-17T01:09:40;100573.28;;;8.93;67.14
21730;BME280;11027;51.030;13.812;2023-05-17T01:12:21;100576.84;;;8.93;67.04
21730;BME280;11027;51.030;13.812;2023-05-17T01:17:49;100583.66;;;8.97;66.78
21730;BME280;11027;51.030;13.812;2023-05-17T01:20:30;100583.97;;;8.94;66.93
21730;BME280;11027;51.030;13.812;2023-05-17T01:23:34;100580.91;;;8.89;67.08
21730;BME280;11027;51.030;13.812;2023-05-17T01:26:17;100592.06;;;8.86;67.30
21730;BME280;11027;51.030;13.812;2023-05-17T01:28:45;100594.09;;;8.84;67.28
21730;BME280;11027;51.030;13.812;2023-05-17T01:31:11;100596.97;;;8.82;67.33
21730;BME280;11027;51.030;13.812;2023-05-17T01:33:37;100594.56;;;8.79;67.69
21730;BME280;11027;51.030;13.812;2023-05-17T01:36:03;100600.50;;;8.75;67.80
21730;BME280;11027;51.030;13.812;2023-05-17T01:38:29;100605.22;;;8.73;67.91
21730;BME280;11027;51.030;13.812;2023-05-17T01:41:00;100599.94;;;8.71;68.00
21730;BME280;11027;51.030;13.812;2023-05-17T01:51:41;100604.84;;;8.68;67.68
21730;BME280;11027;51.030;13.812;2023-05-17T01:54:10;100606.56;;;8.69;67.67
21730;BME280;11027;51.030;13.812;2023-05-17T01:56:41;100605.69;;;8.68;67.75
21730;BME280;11027;51.030;13.812;2023-05-17T01:59:08;100606.88;;;8.66;67.89
21730;BME280;11027;51.030;13.812;2023-05-17T02:01:35;100607.19;;;8.63;67.98
21730;BME280;11027;51.030;13.812;2023-05-17T02:04:01;100605.81;;;8.58;68.11
21730;BME280;11027;51.030;13.812;2023-05-17T02:06:26;100613.56;;;8.53;68.35
21730;BME280;11027;51.030;13.812;2023-05-17T02:08:51;100606.41;;;8.52;68.62
21730;BME280;11027;51.030;13.812;2023-05-17T02:11:17;100615.56;;;8.51;68.58
21730;BME280;11027;51.030;13.812;2023-05-17T02:13:42;100613.84;;;8.50;68.54
21730;BME280;11027;51.030;13.812;2023-05-17T02:16:08;100609.59;;;8.48;68.22
21730;BME280;11027;51.030;13.812;2023-05-17T02:18:33;100612.47;;;8.46;68.66
21730;BME280;11027;51.030;13.812;2023-05-17T02:20:59;100609.03;;;8.44;68.44
21730;BME280;11027;51.030;13.812;2023-05-17T02:23:25;100611.06;;;8.42;68.32
21730;BME280;11027;51.030;13.812;2023-05-17T02:25:50;100611.66;;;8.36;68.32
21730;BME280;11027;51.030;13.812;2023-05-17T02:28:15;100616.94;;;8.37;68.38
21730;BME280;11027;51.030;13.812;2023-05-17T02:30:40;100631.34;;;8.38;68.04
21730;BME280;11027;51.030;13.812;2023-05-17T02:33:07;100632.25;;;8.38;68.10
21730;BME280;11027;51.030;13.812;2023-05-17T02:35:32;100640.19;;;8.40;67.87
21730;BME280;11027;51.030;13.812;2023-05-17T02:37:58;100640.19;;;8.40;67.91
21730;BME280;11027;51.030;13.812;2023-05-17T02:40:23;100637.47;;;8.40;67.63
21730;BME280;11027;51.030;13.812;2023-05-17T02:42:48;100651.25;;;8.38;67.63
21730;BME280;11027;51.030;13.812;2023-05-17T02:45:13;100646.25;;;8.34;67.82
21730;BME280;11027;51.030;13.812;2023-05-17T02:47:39;100646.25;;;8.34;67.90
21730;BME280;11027;51.030;13.812;2023-05-17T02:50:04;100650.28;;;8.30;67.98
21730;BME280;11027;51.030;13.812;2023-05-17T02:52:29;100645.19;;;8.27;68.10
21730;BME280;11027;51.030;13.812;2023-05-17T02:54:55;100651.78;;;8.24;68.24
21730;BME280;11027;51.030;13.812;2023-05-17T02:57:20;100660.06;;;8.23;68.30
21730;BME280;11027;51.030;13.812;2023-05-17T02:59:45;100667.50;;;8.20;68.30
21730;BME280;11027;51.030;13.812;2023-05-17T03:02:10;100667.66;;;8.19;68.52
21730;BME280;11027;51.030;13.812;2023-05-17T03:04:36;100664.09;;;8.18;68.47
21730;BME280;11027;51.030;13.812;2023-05-17T03:07:01;100660.97;;;8.13;68.49
21730;BME280;11027;51.030;13.812;2023-05-17T03:09:26;100662.13;;;8.11;68.62
21730;BME280;11027;51.030;13.812;2023-05-17T03:11:54;100664.16;;;8.09;68.40
21730;BME280;11027;51.030;13.812;2023-05-17T03:14:19;100660.03;;;8.05;68.46
21730;BME280;11027;51.030;13.812;2023-05-17T03:16:45;100663.03;;;8.01;68.45
21730;BME280;11027;51.030;13.812;2023-05-17T03:19:10;100665.75;;;8.01;68.40
21730;BME280;11027;51.030;13.812;2023-05-17T03:21:35;100668.78;;;7.98;68.25
21730;BME280;11027;51.030;13.812;2023-05-17T03:24:00;100670.66;;;7.98;68.21
21730;BME280;11027;51.030;13.812;2023-05-17T03:26:26;100671.66;;;7.97;68.20
21730;BME280;11027;51.030;13.812;2023-05-17T03:28:51;100669.25;;;7.94;68.25
21730;BME280;11027;51.030;13.812;2023-05-17T03:31:17;100671.97;;;7.94;68.22
21730;BME280;11027;51.030;13.812;2023-05-17T03:33:43;100678.38;;;7.93;68.20
21730;BME280;11027;51.030;13.812;2023-05-17T03:36:08;100681.94;;;7.93;68.29
21730;BME280;11027;51.030;13.812;2023-05-17T03:38:33;100683.81;;;7.93;68.34
21730;BME280;11027;51.030;13.812;2023-05-17T03:40:58;100692.25;;;7.90;68.47
21730;BME280;11027;51.030;13.812;2023-05-17T03:43:24;100686.28;;;7.86;68.72
21730;BME280;11027;51.030;13.812;2023-05-17T03:45:49;100692.84;;;7.84;69.11
21730;BME280;11027;51.030;13.812;2023-05-17T03:48:14;100706.25;;;7.85;69.18
21730;BME280;11027;51.030;13.812;2023-05-17T03:50:39;100703.53;;;7.85;69.28
21730;BME280;11027;51.030;13.812;2023-05-17T03:53:05;100714.25;;;7.87;69.31
21730;BME280;11027;51.030;13.812;2023-05-17T03:55:31;100713.97;;;7.90;68.99
21730;BME280;11027;51.030;13.812;2023-05-17T03:57:56;100711.97;;;7.92;68.98
21730;BME280;11027;51.030;13.812;2023-05-17T04:00:21;100719.78;;;7.95;69.06
21730;BME280;11027;51.030;13.812;2023-05-17T04:02:47;100720.47;;;7.97;69.03
21730;BME280;11027;51.030;13.812;2023-05-17T04:05:12;100719.31;;;7.99;69.03
21730;BME280;11027;51.030;13.812;2023-05-17T04:07:38;100712.75;;;8.02;69.22
21730;BME280;11027;51.030;13.812;2023-05-17T04:10:03;100723.28;;;8.05;69.13
21730;BME280;11027;51.030;13.812;2023-05-17T04:12:30;100723.53;;;8.12;68.98
21730;BME280;11027;51.030;13.812;2023-05-17T04:14:55;100730.94;;;8.19;68.81
21730;BME280;11027;51.030;13.812;2023-05-17T04:17:20;100725.91;;;8.25;68.73
21730;BME280;11027;51.030;13.812;2023-05-17T04:19:45;100722.59;;;8.31;68.59
21730;BME280;11027;51.030;13.812;2023-05-17T04:22:11;100721.84;;;8.38;68.59
21730;BME280;11027;51.030;13.812;2023-05-17T04:24:36;100723.78;;;8.46;68.37
21730;BME280;11027;51.030;13.812;2023-05-17T04:27:01;100723.16;;;8.52;68.43
21730;BME280;11027;51.030;13.812;2023-05-17T04:29:28;100716.47;;;8.56;68.29
21730;BME280;11027;51.030;13.812;2023-05-17T04:31:53;100717.53;;;8.64;68.08
21730;BME280;11027;51.030;13.812;2023-05-17T04:34:19;100718.63;;;8.71;68.03
21730;BME280;11027;51.030;13.812;2023-05-17T04:36:46;100714.59;;;8.75;68.03
21730;BME280;11027;51.030;13.812;2023-05-17T04:39:11;100713.66;;;8.84;68.06
21730;BME280;11027;51.030;13.812;2023-05-17T04:41:36;100718.44;;;8.90;67.80
21730;BME280;11027;51.030;13.812;2023-05-17T04:44:02;100723.25;;;8.96;67.81
21730;BME280;11027;51.030;13.812;2023-05-17T04:46:28;100735.53;;;9.00;67.73
21730;BME280;11027;51.030;13.812;2023-05-17T04:48:53;100736.63;;;9.08;67.63
21730;BME280;11027;51.030;13.812;2023-05-17T04:51:20;100738.84;;;9.12;67.45
21730;BME280;11027;51.030;13.812;2023-05-17T04:53:45;100747.06;;;9.20;67.22
21730;BME280;11027;51.030;13.812;2023-05-17T04:56:10;100747.94;;;9.21;67.31
21730;BME280;11027;51.030;13.812;2023-05-17T04:58:36;100757.50;;;9.25;67.13
21730;BME280;11027;51.030;13.812;2023-05-17T05:01:01;100755.47;;;9.27;67.16
21730;BME280;11027;51.030;13.812;2023-05-17T05:03:27;100752.56;;;9.29;67.28
21730;BME280;11027;51.030;13.812;2023-05-17T05:05:52;100739.91;;;9.37;67.28
21730;BME280;11027;51.030;13.812;2023-05-17T05:08:17;100732.66;;;9.46;67.05
21730;BME280;11027;51.030;13.812;2023-05-17T05:10:43;100734.16;;;9.40;66.82
21730;BME280;11027;51.030;13.812;2023-05-17T05:13:08;100732.34;;;9.23;67.09
21730;BME280;11027;51.030;13.812;2023-05-17T05:15:33;100733.75;;;9.09;67.51
21730;BME280;11027;51.030;13.812;2023-05-17T05:17:59;100749.91;;;8.93;68.29
21730;BME280;11027;51.030;13.812;2023-05-17T05:20:24;100734.47;;;8.75;68.86
21730;BME280;11027;51.030;13.812;2023-05-17T05:22:49;100746.78;;;8.70;69.72
21730;BME280;11027;51.030;13.812;2023-05-17T05:25:15;100751.22;;;8.71;70.05
21730;BME280;11027;51.030;13.812;2023-05-17T05:27:40;100751.53;;;8.68;70.47
21730;BME280;11027;51.030;13.812;2023-05-17T05:30:05;100750.91;;;8.74;70.51
21730;BME280;11027;51.030;13.812;2023-05-17T05:32:31;100747.28;;;8.83;70.60
21730;BME280;11027;51.030;13.812;2023-05-17T05:34:56;100752.00;;;8.81;70.53
21730;BME280;11027;51.030;13.812;2023-05-17T05:37:22;100749.38;;;8.89;70.70
21730;BME280;11027;51.030;13.812;2023-05-17T05:39:47;100756.81;;;8.87;70.69
21730;BME280;11027;51.030;13.812;2023-05-17T05:42:13;100756.81;;;8.87;70.84
21730;BME280;11027;51.030;13.812;2023-05-17T05:44:38;100768.75;;;8.94;71.01
21730;BME280;11027;51.030;13.812;2023-05-17T05:47:03;100771.66;;;8.93;71.00
21730;BME280;11027;51.030;13.812;2023-05-17T05:49:29;100763.03;;;8.97;71.34
21730;BME280;11027;51.030;13.812;2023-05-17T05:51:54;100775.50;;;9.08;71.03
21730;BME280;11027;51.030;13.812;2023-05-17T05:54:19;100765.41;;;9.00;71.24
21730;BME280;11027;51.030;13.812;2023-05-17T05:56:44;100778.72;;;9.04;71.50
21730;BME280;11027;51.030;13.812;2023-05-17T05:59:10;100783.38;;;9.11;71.64
21730;BME280;11027;51.030;13.812;2023-05-17T06:01:35;100797.81;;;9.12;71.65
21730;BME280;11027;51.030;13.812;2023-05-17T06:04:01;100779.34;;;9.15;71.62
21730;BME280;11027;51.030;13.812;2023-05-17T06:06:26;100784.28;;;9.20;71.79
21730;BME280;11027;51.030;13.812;2023-05-17T06:08:52;100780.31;;;9.32;71.59
21730;BME280;11027;51.030;13.812;2023-05-17T06:11:17;100783.63;;;9.44;71.69
21730;BME280;11027;51.030;13.812;2023-05-17T06:13:44;100785.63;;;9.60;71.54
21730;BME280;11027;51.030;13.812;2023-05-17T06:16:09;100795.53;;;9.69;71.33
21730;BME280;11027;51.030;13.812;2023-05-17T06:18:35;100798.66;;;9.74;70.87
21730;BME280;11027;51.030;13.812;2023-05-17T06:21:00;100794.06;;;9.75;70.65
21730;BME280;11027;51.030;13.812;2023-05-17T06:23:25;100792.13;;;9.67;70.70
21730;BME280;11027;51.030;13.812;2023-05-17T06:25:51;100796.63;;;9.76;70.83
21730;BME280;11027;51.030;13.812;2023-05-17T06:28:16;100803.13;;;9.84;70.54
21730;BME280;11027;51.030;13.812;2023-05-17T06:30:42;100804.53;;;9.88;70.46
21730;BME280;11027;51.030;13.812;2023-05-17T06:33:07;100806.22;;;9.89;70.58
21730;BME280;11027;51.030;13.812;2023-05-17T06:35:33;100807.94;;;9.90;70.07
21730;BME280;11027;51.030;13.812;2023-05-17T06:37:59;100799.78;;;9.90;70.30
21730;BME280;11027;51.030;13.812;2023-05-17T06:40:24;100801.72;;;9.79;70.36
21730;BME280;11027;51.030;13.812;2023-05-17T06:42:49;100820.97;;;9.78;70.58
21730;BME280;11027;51.030;13.812;2023-05-17T06:45:15;100804.09;;;9.74;70.80
21730;BME280;11027;51.030;13.812;2023-05-17T06:47:40;100820.41;;;9.74;70.86
21730;BME280;11027;51.030;13.812;2023-05-17T06:50:06;100799.13;;;9.70;71.10
21730;BME280;11027;51.030;13.812;2023-05-17T06:52:33;100818.28;;;9.60;71.42
21730;BME280;11027;51.030;13.812;2023-05-17T06:54:59;100818.06;;;9.53;71.78
21730;BME280;11027;51.030;13.812;2023-05-17T06:57:24;100807.19;;;9.53;71.87
21730;BME280;11027;51.030;13.812;2023-05-17T06:59:49;100811.09;;;9.59;72.01
21730;BME280;11027;51.030;13.812;2023-05-17T07:02:16;100824.47;;;9.70;72.07
21730;BME280;11027;51.030;13.812;2023-05-17T07:04:41;100807.72;;;9.83;71.64
21730;BME280;11027;51.030;13.812;2023-05-17T07:07:06;100826.16;;;9.97;71.42
21730;BME280;11027;51.030;13.812;2023-05-17T07:09:31;100815.88;;;10.09;70.98
21730;BME280;11027;51.030;13.812;2023-05-17T07:11:57;100823.81;;;10.29;70.36
21730;BME280;11027;51.030;13.812;2023-05-17T07:14:22;100815.03;;;10.43;69.78
21730;BME280;11027;51.030;13.812;2023-05-17T07:16:47;100814.38;;;10.49;69.36
21730;BME280;11027;51.030;13.812;2023-05-17T07:19:13;100812.50;;;10.50;69.15
21730;BME280;11027;51.030;13.812;2023-05-17T07:21:38;100806.06;;;10.51;68.73
21730;BME280;11027;51.030;13.812;2023-05-17T07:24:04;100814.75;;;10.54;68.66
21730;BME280;11027;51.030;13.812;2023-05-17T07:26:29;100807.59;;;10.53;67.91
21730;BME280;11027;51.030;13.812;2023-05-17T07:28:54;100811.84;;;10.56;67.33
21730;BME280;11027;51.030;13.812;2023-05-17T07:31:20;100816.81;;;10.60;67.03
21730;BME280;11027;51.030;13.812;2023-05-17T07:33:45;100813.91;;;10.62;66.76
21730;BME280;11027;51.030;13.812;2023-05-17T07:36:10;100798.78;;;10.68;66.74
21730;BME280;11027;51.030;13.812;2023-05-17T07:38:36;100805.28;;;10.75;67.10
21730;BME280;11027;51.030;13.812;2023-05-17T07:41:02;100810.03;;;10.73;67.74
21730;BME280;11027;51.030;13.812;2023-05-17T07:43:28;100816.44;;;10.55;67.96
21730;BME280;11027;51.030;13.812;2023-05-17T07:45:53;100817.63;;;10.45;68.64
21730;BME280;11027;51.030;13.812;2023-05-17T07:48:18;100807.56;;;10.45;68.57
21730;BME280;11027;51.030;13.812;2023-05-17T07:50:43;100814.38;;;10.49;68.90
21730;BME280;11027;51.030;13.812;2023-05-17T07:53:09;100827.00;;;10.50;68.75
21730;BME280;11027;51.030;13.812;2023-05-17T07:55:34;100819.19;;;10.55;68.29
21730;BME280;11027;51.030;13.812;2023-05-17T07:58:00;100817.47;;;10.54;68.14
21730;BME280;11027;51.030;13.812;2023-05-17T08:00:25;100828.03;;;10.57;67.88
21730;BME280;11027;51.030;13.812;2023-05-17T08:02:50;100820.03;;;10.56;66.31
21730;BME280;11027;51.030;13.812;2023-05-17T08:05:16;100823.28;;;10.59;65.03
21730;BME280;11027;51.030;13.812;2023-05-17T08:07:41;100833.88;;;10.71;63.65
21730;BME280;11027;51.030;13.812;2023-05-17T08:10:06;100832.88;;;10.80;63.54
21730;BME280;11027;51.030;13.812;2023-05-17T08:12:31;100830.53;;;10.93;63.16
21730;BME280;11027;51.030;13.812;2023-05-17T08:14:57;100830.22;;;11.13;63.52
21730;BME280;11027;51.030;13.812;2023-05-17T08:17:22;100836.03;;;11.34;63.38
21730;BME280;11027;51.030;13.812;2023-05-17T08:19:47;100834.16;;;11.43;62.66
21730;BME280;11027;51.030;13.812;2023-05-17T08:22:12;100816.94;;;11.43;62.07
21730;BME280;11027;51.030;13.812;2023-05-17T08:24:38;100826.34;;;11.48;61.25
21730;BME280;11027;51.030;13.812;2023-05-17T08:27:03;100816.63;;;11.54;60.71
21730;BME280;11027;51.030;13.812;2023-05-17T08:29:29;100812.50;;;11.66;60.22
21730;BME280;11027;51.030;13.812;2023-05-17T08:31:54;100809.78;;;11.74;59.61
21730;BME280;11027;51.030;13.812;2023-05-17T08:34:19;100815.75;;;11.78;59.68
21730;BME280;11027;51.030;13.812;2023-05-17T08:36:45;100809.75;;;11.82;59.87
21730;BME280;11027;51.030;13.812;2023-05-17T08:39:11;100818.78;;;11.83;58.74
21730;BME280;11027;51.030;13.812;2023-05-17T08:41:37;100815.22;;;11.91;57.91
21730;BME280;11027;51.030;13.812;2023-05-17T08:44:04;100817.59;;;11.77;57.57
21730;BME280;11027;51.030;13.812;2023-05-17T08:46:31;100812.50;;;11.66;56.80
21730;BME280;11027;51.030;13.812;2023-05-17T08:48:57;100822.75;;;11.56;56.97
21730;BME280;11027;51.030;13.812;2023-05-17T08:51:24;100816.25;;;11.65;57.88
21730;BME280;11027;51.030;13.812;2023-05-17T08:53:50;100820.50;;;11.84;57.98
21730;BME280;11027;51.030;13.812;2023-05-17T08:56:16;100830.06;;;11.96;57.66
21730;BME280;11027;51.030;13.812;2023-05-17T08:58:44;100819.69;;;11.92;57.17
21730;BME280;11027;51.030;13.812;2023-05-17T09:01:11;100830.94;;;11.89;57.03
21730;BME280;11027;51.030;13.812;2023-05-17T09:03:38;100826.31;;;11.89;56.93
21730;BME280;11027;51.030;13.812;2023-05-17T09:06:05;100826.16;;;11.91;56.83
21730;BME280;11027;51.030;13.812;2023-05-17T09:08:30;100835.38;;;11.90;57.04
21730;BME280;11027;51.030;13.812;2023-05-17T09:10:56;100829.19;;;11.79;57.52
21730;BME280;11027;51.030;13.812;2023-05-17T09:13:23;100829.56;;;11.68;58.22
21730;BME280;11027;51.030;13.812;2023-05-17T09:15:49;100838.97;;;11.57;58.99
21730;BME280;11027;51.030;13.812;2023-05-17T09:18:14;100833.16;;;11.60;59.18
21730;BME280;11027;51.030;13.812;2023-05-17T09:20:40;100828.91;;;11.66;59.06
21730;BME280;11027;51.030;13.812;2023-05-17T09:23:09;100829.91;;;11.81;58.98
21730;BME280;11027;51.030;13.812;2023-05-17T09:25:37;100839.97;;;11.97;58.26
21730;BME280;11027;51.030;13.812;2023-05-17T09:28:04;100833.50;;;11.98;57.21
21730;BME280;11027;51.030;13.812;2023-05-17T09:30:33;100827.84;;;12.08;57.53
21730;BME280;11027;51.030;13.812;2023-05-17T09:33:06;100836.19;;;12.07;57.19
21730;BME280;11027;51.030;13.812;2023-05-17T09:35:32;100838.09;;;11.98;56.78
21730;BME280;11027;51.030;13.812;2023-05-17T09:38:12;100854.13;;;11.93;57.61
21730;BME280;11027;51.030;13.812;2023-05-17T09:40:39;100865.03;;;11.85;57.97
21730;BME280;11027;51.030;13.812;2023-05-17T09:43:05;100849.03;;;11.81;58.23
21730;BME280;11027;51.030;13.812;2023-05-17T09:45:31;100854.50;;;11.90;58.13
21730;BME280;11027;51.030;13.812;2023-05-17T09:47:57;100845.59;;;12.12;58.25
21730;BME280;11027;51.030;13.812;2023-05-17T09:50:34;100855.75;;;12.35;57.65
21730;BME280;11027;51.030;13.812;2023-05-17T09:53:00;100845.81;;;12.42;56.88
21730;BME280;11027;51.030;13.812;2023-05-17T09:55:25;100847.56;;;12.35;56.96
21730;BME280;11027;51.030;13.812;2023-05-17T09:57:51;100849.66;;;12.25;56.82
21730;BME280;11027;51.030;13.812;2023-05-17T10:00:19;100857.50;;;12.19;57.39
21730;BME280;11027;51.030;13.812;2023-05-17T10:02:46;100848.13;;;12.22;57.07
21730;BME280;11027;51.030;13.812;2023-05-17T10:05:14;100861.56;;;12.32;56.79
21730;BME280;11027;51.030;13.812;2023-05-17T10:07:41;100868.38;;;12.36;56.10
21730;BME280;11027;51.030;13.812;2023-05-17T10:10:07;100856.47;;;12.29;55.47
21730;BME280;11027;51.030;13.812;2023-05-17T10:12:33;100854.25;;;12.24;55.72
21730;BME280;11027;51.030;13.812;2023-05-17T10:15:00;100851.00;;;12.29;55.79
21730;BME280;11027;51.030;13.812;2023-05-17T10:17:26;100850.44;;;12.41;55.79
21730;BME280;11027;51.030;13.812;2023-05-17T10:19:54;100861.16;;;12.51;55.48
21730;BME280;11027;51.030;13.812;2023-05-17T10:22:20;100858.06;;;12.63;55.69
21730;BME280;11027;51.030;13.812;2023-05-17T10:24:46;100866.56;;;12.68;55.55
21730;BME280;11027;51.030;13.812;2023-05-17T10:27:12;100864.88;;;12.67;55.07
21730;BME280;11027;51.030;13.812;2023-05-17T10:29:40;100866.50;;;12.84;55.22
21730;BME280;11027;51.030;13.812;2023-05-17T10:32:06;100856.81;;;13.05;54.88
21730;BME280;11027;51.030;13.812;2023-05-17T10:34:33;100869.06;;;13.17;54.28
21730;BME280;11027;51.030;13.812;2023-05-17T10:37:00;100866.31;;;13.17;54.09
21730;BME280;11027;51.030;13.812;2023-05-17T10:39:26;100864.59;;;13.16;53.53
21730;BME280;11027;51.030;13.812;2023-05-17T10:41:53;100869.75;;;13.11;52.78
21730;BME280;11027;51.030;13.812;2023-05-17T10:44:21;100874.81;;;12.99;53.31
21730;BME280;11027;51.030;13.812;2023-05-17T10:46:53;100882.19;;;12.90;53.29
21730;BME280;11027;51.030;13.812;2023-05-17T10:49:23;100867.69;;;12.81;51.68
21730;BME280;11027;51.030;13.812;2023-05-17T10:51:49;100859.41;;;12.67;48.98
21730;BME280;11027;51.030;13.812;2023-05-17T10:54:15;100858.03;;;12.71;48.97
21730;BME280;11027;51.030;13.812;2023-05-17T10:56:48;100845.28;;;12.86;47.36
21730;BME280;11027;51.030;13.812;2023-05-17T10:59:25;100837.97;;;13.10;46.86
21730;BME280;11027;51.030;13.812;2023-05-17T11:07:20;100846.53;;;13.38;47.90
21730;BME280;11027;51.030;13.812;2023-05-17T11:12:38;100845.78;;;13.21;49.34
21730;BME280;11027;51.030;13.812;2023-05-17T11:15:09;100845.41;;;13.24;48.19
21730;BME280;11027;51.030;13.812;2023-05-17T11:22:57;100833.63;;;13.47;47.69
21730;BME280;11027;51.030;13.812;2023-05-17T11:25:23;100832.16;;;13.59;46.36
21730;BME280;11027;51.030;13.812;2023-05-17T11:27:52;100818.28;;;13.60;45.27
21730;BME280;11027;51.030;13.812;2023-05-17T11:30:18;100824.91;;;13.66;46.40
21730;BME280;11027;51.030;13.812;2023-05-17T11:32:49;100821.88;;;13.61;46.84
21730;BME280;11027;51.030;13.812;2023-05-17T11:35:17;100822.19;;;13.66;46.05
21730;BME280;11027;51.030;13.812;2023-05-17T11:37:43;100828.50;;;13.67;45.98
21730;BME280;11027;51.030;13.812;2023-05-17T11:40:09;100830.81;;;13.55;45.54
21730;BME280;11027;51.030;13.812;2023-05-17T11:42:37;100827.50;;;13.45;45.22
21730;BME280;11027;51.030;13.812;2023-05-17T11:45:04;100826.09;;;13.49;45.92
21730;BME280;11027;51.030;13.812;2023-05-17T11:47:29;100823.13;;;13.73;46.92
21730;BME280;11027;51.030;13.812;2023-05-17T11:49:59;100830.66;;;13.94;45.42
21730;BME280;11027;51.030;13.812;2023-05-17T11:52:27;100825.00;;;14.11;44.66
21730;BME280;11027;51.030;13.812;2023-05-17T11:54:52;100832.38;;;14.25;44.59
21730;BME280;11027;51.030;13.812;2023-05-17T11:57:18;100820.09;;;14.21;44.45
21730;BME280;11027;51.030;13.812;2023-05-17T11:59:45;100808.63;;;14.17;45.05
21730;BME280;11027;51.030;13.812;2023-05-17T12:02:25;100826.09;;;14.01;44.85
21730;BME280;11027;51.030;13.812;2023-05-17T12:04:51;100819.66;;;13.79;43.89
21730;BME280;11027;51.030;13.812;2023-05-17T12:07:16;100817.38;;;13.83;43.65
21730;BME280;11027;51.030;13.812;2023-05-17T12:09:43;100819.69;;;14.09;44.04
21730;BME280;11027;51.030;13.812;2023-05-17T12:12:09;100815.53;;;14.43;43.58
21730;BME280;11027;51.030;13.812;2023-05-17T12:14:35;100807.97;;;14.75;43.58
21730;BME280;11027;51.030;13.812;2023-05-17T12:17:07;100812.88;;;14.79;43.00
21730;BME280;11027;51.030;13.812;2023-05-17T12:19:32;100811.47;;;14.69;43.08
21730;BME280;11027;51.030;13.812;2023-05-17T12:22:05;100818.72;;;14.76;42.47
21730;BME280;11027;51.030;13.812;2023-05-17T12:24:38;100813.22;;;14.91;41.84
21730;BME280;11027;51.030;13.812;2023-05-17T12:27:04;100835.75;;;15.23;42.25
21730;BME280;11027;51.030;13.812;2023-05-17T12:29:30;100817.63;;;15.29;41.13
21730;BME280;11027;51.030;13.812;2023-05-17T12:31:55;100836.53;;;15.17;40.42
21730;BME280;11027;51.030;13.812;2023-05-17T12:34:21;100816.50;;;15.02;40.92
21730;BME280;11027;51.030;13.812;2023-05-17T12:36:46;100839.13;;;15.25;41.80
21730;BME280;11027;51.030;13.812;2023-05-17T12:39:13;100821.34;;;15.64;42.05
21730;BME280;11027;51.030;13.812;2023-05-17T12:41:39;100838.72;;;15.93;41.00
21730;BME280;11027;51.030;13.812;2023-05-17T12:44:06;100838.91;;;15.91;40.80
21730;BME280;11027;51.030;13.812;2023-05-17T12:46:32;100846.41;;;15.76;40.35
21730;BME280;11027;51.030;13.812;2023-05-17T12:49:04;100848.22;;;15.90;40.50
21730;BME280;11027;51.030;13.812;2023-05-17T12:51:43;100830.50;;;16.28;39.11
21730;BME280;11027;51.030;13.812;2023-05-17T12:54:13;100835.34;;;16.26;38.42
21730;BME280;11027;51.030;13.812;2023-05-17T12:56:41;100824.81;;;16.36;38.76
21730;BME280;11027;51.030;13.812;2023-05-17T12:59:13;100822.41;;;16.19;37.73
21730;BME280;11027;51.030;13.812;2023-05-17T13:01:49;100823.63;;;16.45;37.94
21730;BME280;11027;51.030;13.812;2023-05-17T13:04:16;100815.19;;;16.53;38.57
21730;BME280;11027;51.030;13.812;2023-05-17T13:07:01;100819.50;;;16.63;38.42